• Join FlightAware (Why Join?)
  • Login
  • US Flag 
11:51AM EDT


 

Airport Tracker/Info


-or-


 

Live Flight TrackerFlight Track Log ✈ SWA325 ✈ 25-Jul-2013 ✈ KONT - KPHX

Flight Track Log - Related Links

Times and Time Zones

All times are in EDT time to prevent confusion due to time zone crossing. See the SWA325 flight status page for this flight to view local times or setup timezone preferences in your user account.

Time Position Orientation Groundspeed Altitude Reporting Facility
EDT Latitude Longitude Course Direction KTS MPH feet Rate Location/Type
12:17PM 34.0000 -117.6000 148° Southeast 215 247 4,000  Level Southern California TRACON
12:19PM 33.9433 -117.4989 124° Southeast 254 292 6,800 1,920 Climbing Los Angeles Center
12:20PM 33.9067 -117.4117 117° Southeast 288 331 9,000 1,920 Climbing Los Angeles Center
12:21PM 33.8719 -117.3239 115° Southeast 290 334 10,800 2,160 Climbing Los Angeles Center
12:22PM 33.8297 -117.2219 116° Southeast 338 389 13,500 1,980 Climbing Los Angeles Center
12:23PM 33.7875 -117.1189 116° Southeast 343 395 15,000 2,160 Climbing Los Angeles Center
12:24PM 33.7356 -116.9894 116° Southeast 355 409 18,000 2,640 Climbing Los Angeles Center
12:25PM 33.6911 -116.8739 115° Southeast 380 437 20,600 2,340 Climbing Los Angeles Center
12:26PM 33.6778 -116.7319 96° East 397 457 22,900 1,500 Climbing Los Angeles Center
12:27PM 33.6661 -116.5964 96° East 409 471 23,800 1,380 Climbing Los Angeles Center
12:28PM 33.6547 -116.4589 96° East 412 474 25,800 1,740 Climbing Los Angeles Center
12:29PM 33.6422 -116.3142 96° East 431 496 27,400 1,560 Climbing Los Angeles Center
12:30PM 33.6281 -116.1633 96° East 450 518 29,100 1,980 Climbing Los Angeles Center
12:31PM 33.6247 -116.0139 91° East 448 516 31,600 1,860 Climbing Los Angeles Center
12:32PM 33.6228 -115.8689 91° East 435 501 33,000 660 Climbing Los Angeles Center
12:33PM 33.6178 -115.6958 92° East 433 498 33,000  Level Los Angeles Center
12:34PM 33.6144 -115.5506 92° East 436 502 33,000  Level Los Angeles Center
12:35PM 33.6111 -115.4058 92° East 435 501 33,000  Level Los Angeles Center
12:36PM 33.6086 -115.2603 91° East 436 502 33,000 -480 Level Los Angeles Center
12:37PM 33.6050 -115.1178 92° East 430 495 32,100 -840 Descending Los Angeles Center
12:38PM 33.6008 -114.9700 92° East 439 505 31,300 -540 Descending Los Angeles Center
12:39PM 33.5950 -114.7886 92° East 453 521 31,000 -180 Descending Los Angeles Center
12:40PM 33.5714 -114.6400 101° East 453 521 31,000  Level Los Angeles Center
12:41PM 33.5422 -114.4944 103° East 451 519 31,000 -780 Level Los Angeles Center
12:42PM 33.5169 -114.3553 102° East 452 520 29,500 -1,860 Descending Albuquerque Center
12:43PM 33.4897 -114.2125 103° East 446 513 27,200 -2,220 Descending Albuquerque Center
12:44PM 33.4636 -114.0775 103° East 426 490 25,000 -1,080 Descending Albuquerque Center
12:45PM 33.4314 -113.9186 104° East 413 475 25,000  Level Albuquerque Center
12:47PM 33.4042 -113.7892 104° East 405 466 25,000  Level Albuquerque Center
12:48PM 33.3781 -113.6578 103° East 406 467 25,000 -1,020 Level Albuquerque Center
12:49PM 33.3517 -113.5258 103° East 408 470 23,000 -1,500 Descending Albuquerque Center
12:50PM 33.3253 -113.3975 104° East 401 461 21,900 -1,500 Descending Albuquerque Center
12:51PM 33.2994 -113.2750 104° East 387 445 19,900 -2,160 Descending Albuquerque Center
12:52PM 33.2739 -113.1314 102° East 373 429 17,500 -1,500 Descending Albuquerque Center
12:53PM 33.2753 -113.0142 89° East 357 411 16,900 -420 Descending Albuquerque Center
12:54PM 33.2789 -112.9014 88° East 344 396 16,700 -540 Descending Albuquerque Center
12:55PM 33.2808 -112.7942 89° East 329 379 15,900 -480 Descending Albuquerque Center
12:56PM 33.2828 -112.6928 89° East 314 361 15,800 -840 Descending Albuquerque Center
12:57PM 33.2864 -112.5806 88° East 303 349 14,200 -1,500 Descending Albuquerque Center
12:58PM 33.2889 -112.4847 88° East 294 338 12,700 -1,380 Descending Albuquerque Center
12:59PM 33.2908 -112.3900 89° East 287 330 11,400 -1,020 Descending Albuquerque Center
01:00PM 33.2958 -112.2947 86° East 289 333 10,700 -900 Descending Albuquerque Center
01:01PM 33.3028 -112.2006 85° East 286 329 9,600 -900 Descending Albuquerque Center
01:02PM 33.3106 -112.0975 85° East 259 298 8,900 -780 Descending Albuquerque Center
01:03PM 33.3294 -112.0233 73° East 235 270 8,000 -1,020 Descending Albuquerque Center
01:04PM 33.3464 -111.9506 74° East 230 265 6,900 -1,020 Descending Albuquerque Center
01:05PM 33.3456 -111.8731 91° East 236 272 5,900 -960 Descending Albuquerque Center
01:06PM 33.3789 -111.8192 53° Northeast 240 276 5,000 -1,020 Descending Albuquerque Center
01:07PM 33.4372 -111.8367 346° North 237 273 3,900 -1,140 Descending Albuquerque Center
01:08PM 33.4333 -111.9000 266° West 175 201 2,900 -1,200 Descending Phoenix TRACON
01:09PM 33.4333 -111.9500 270° West 159 183 1,700 -1,260 Descending Phoenix TRACON